sensor_id;sensor_type;location;lat;lon;timestamp;P1;durP1;ratioP1;P2;durP2;ratioP2
57573;SDS011;68988;49.000;21.242;2023-12-22T00:00:18;1.20;;;1.20;;
57573;SDS011;68988;49.000;21.242;2023-12-22T00:02:43;1.60;;;1.50;;
57573;SDS011;68988;49.000;21.242;2023-12-22T00:05:09;2.45;;;1.50;;
57573;SDS011;68988;49.000;21.242;2023-12-22T00:07:34;1.40;;;1.30;;
57573;SDS011;68988;49.000;21.242;2023-12-22T00:09:59;1.63;;;1.52;;
57573;SDS011;68988;49.000;21.242;2023-12-22T00:12:25;1.70;;;1.60;;
57573;SDS011;68988;49.000;21.242;2023-12-22T00:14:50;1.52;;;1.42;;
57573;SDS011;68988;49.000;21.242;2023-12-22T00:17:15;1.35;;;1.33;;
57573;SDS011;68988;49.000;21.242;2023-12-22T00:19:41;1.80;;;1.50;;
57573;SDS011;68988;49.000;21.242;2023-12-22T00:22:06;1.65;;;1.55;;
57573;SDS011;68988;49.000;21.242;2023-12-22T00:24:31;2.45;;;1.50;;
57573;SDS011;68988;49.000;21.242;2023-12-22T00:26:57;1.50;;;1.40;;
57573;SDS011;68988;49.000;21.242;2023-12-22T00:29:22;1.67;;;1.58;;
57573;SDS011;68988;49.000;21.242;2023-12-22T00:31:47;1.58;;;1.48;;
57573;SDS011;68988;49.000;21.242;2023-12-22T00:34:13;1.67;;;1.58;;
57573;SDS011;68988;49.000;21.242;2023-12-22T00:36:38;1.45;;;1.35;;
57573;SDS011;68988;49.000;21.242;2023-12-22T00:39:03;1.52;;;1.42;;
57573;SDS011;68988;49.000;21.242;2023-12-22T00:41:29;1.42;;;1.35;;
57573;SDS011;68988;49.000;21.242;2023-12-22T00:43:54;1.30;;;1.30;;
57573;SDS011;68988;49.000;21.242;2023-12-22T00:46:19;1.50;;;1.40;;
57573;SDS011;68988;49.000;21.242;2023-12-22T00:48:45;1.60;;;1.50;;
57573;SDS011;68988;49.000;21.242;2023-12-22T00:51:10;1.70;;;1.60;;
57573;SDS011;68988;49.000;21.242;2023-12-22T00:53:36;1.60;;;1.55;;
57573;SDS011;68988;49.000;21.242;2023-12-22T00:56:01;1.77;;;1.67;;
57573;SDS011;68988;49.000;21.242;2023-12-22T00:58:31;1.30;;;1.30;;
57573;SDS011;68988;49.000;21.242;2023-12-22T01:00:56;1.27;;;1.17;;
57573;SDS011;68988;49.000;21.242;2023-12-22T01:03:21;1.50;;;1.50;;
57573;SDS011;68988;49.000;21.242;2023-12-22T01:05:47;1.40;;;1.30;;
57573;SDS011;68988;49.000;21.242;2023-12-22T01:08:12;1.60;;;1.50;;
57573;SDS011;68988;49.000;21.242;2023-12-22T01:10:38;1.58;;;1.48;;
57573;SDS011;68988;49.000;21.242;2023-12-22T01:13:03;1.50;;;1.40;;
57573;SDS011;68988;49.000;21.242;2023-12-22T01:15:28;1.55;;;1.45;;
57573;SDS011;68988;49.000;21.242;2023-12-22T01:17:54;1.20;;;1.20;;
57573;SDS011;68988;49.000;21.242;2023-12-22T01:20:19;0.98;;;0.98;;
57573;SDS011;68988;49.000;21.242;2023-12-22T01:22:45;1.33;;;1.23;;
57573;SDS011;68988;49.000;21.242;2023-12-22T01:25:10;1.58;;;1.48;;
57573;SDS011;68988;49.000;21.242;2023-12-22T01:27:35;1.30;;;1.30;;
57573;SDS011;68988;49.000;21.242;2023-12-22T01:30:01;1.50;;;1.40;;
57573;SDS011;68988;49.000;21.242;2023-12-22T01:32:26;1.10;;;1.10;;
57573;SDS011;68988;49.000;21.242;2023-12-22T01:34:52;1.17;;;1.17;;
57573;SDS011;68988;49.000;21.242;2023-12-22T01:37:17;1.27;;;1.20;;
57573;SDS011;68988;49.000;21.242;2023-12-22T01:39:42;1.30;;;1.30;;
57573;SDS011;68988;49.000;21.242;2023-12-22T01:42:08;1.30;;;1.30;;
57573;SDS011;68988;49.000;21.242;2023-12-22T01:44:33;1.40;;;1.30;;
57573;SDS011;68988;49.000;21.242;2023-12-22T01:46:58;1.23;;;1.13;;
57573;SDS011;68988;49.000;21.242;2023-12-22T01:49:24;1.50;;;1.40;;
57573;SDS011;68988;49.000;21.242;2023-12-22T01:51:50;1.40;;;1.30;;
57573;SDS011;68988;49.000;21.242;2023-12-22T01:54:17;1.50;;;1.40;;
57573;SDS011;68988;49.000;21.242;2023-12-22T01:56:43;1.30;;;1.30;;
57573;SDS011;68988;49.000;21.242;2023-12-22T01:59:08;1.40;;;1.30;;
57573;SDS011;68988;49.000;21.242;2023-12-22T02:01:35;1.20;;;1.20;;
57573;SDS011;68988;49.000;21.242;2023-12-22T02:04:00;1.00;;;1.00;;
57573;SDS011;68988;49.000;21.242;2023-12-22T02:06:28;1.38;;;1.27;;
57573;SDS011;68988;49.000;21.242;2023-12-22T02:08:55;1.30;;;1.20;;
57573;SDS011;68988;49.000;21.242;2023-12-22T02:11:23;1.10;;;1.10;;
57573;SDS011;68988;49.000;21.242;2023-12-22T02:13:48;1.10;;;1.10;;
57573;SDS011;68988;49.000;21.242;2023-12-22T02:16:18;1.27;;;1.20;;
57573;SDS011;68988;49.000;21.242;2023-12-22T02:18:50;1.40;;;1.30;;
57573;SDS011;68988;49.000;21.242;2023-12-22T02:21:20;1.08;;;1.08;;
57573;SDS011;68988;49.000;21.242;2023-12-22T02:23:47;1.50;;;1.40;;
57573;SDS011;68988;49.000;21.242;2023-12-22T02:26:15;1.38;;;1.30;;
57573;SDS011;68988;49.000;21.242;2023-12-22T02:28:46;1.58;;;1.48;;
57573;SDS011;68988;49.000;21.242;2023-12-22T02:31:16;1.25;;;1.15;;
57573;SDS011;68988;49.000;21.242;2023-12-22T02:33:45;1.40;;;1.30;;
57573;SDS011;68988;49.000;21.242;2023-12-22T02:36:12;1.70;;;1.60;;
57573;SDS011;68988;49.000;21.242;2023-12-22T02:38:40;1.40;;;1.30;;
57573;SDS011;68988;49.000;21.242;2023-12-22T02:41:07;1.15;;;1.15;;
57573;SDS011;68988;49.000;21.242;2023-12-22T02:43:33;1.23;;;1.23;;
57573;SDS011;68988;49.000;21.242;2023-12-22T02:45:59;1.20;;;1.20;;
57573;SDS011;68988;49.000;21.242;2023-12-22T02:48:24;1.40;;;1.30;;
57573;SDS011;68988;49.000;21.242;2023-12-22T02:50:49;1.38;;;1.27;;
57573;SDS011;68988;49.000;21.242;2023-12-22T02:53:15;1.23;;;1.23;;
57573;SDS011;68988;49.000;21.242;2023-12-22T02:55:40;1.27;;;1.20;;
57573;SDS011;68988;49.000;21.242;2023-12-22T02:58:05;1.15;;;1.15;;
57573;SDS011;68988;49.000;21.242;2023-12-22T03:00:31;1.10;;;1.10;;
57573;SDS011;68988;49.000;21.242;2023-12-22T03:02:56;1.30;;;1.20;;
57573;SDS011;68988;49.000;21.242;2023-12-22T03:05:21;1.13;;;1.13;;
57573;SDS011;68988;49.000;21.242;2023-12-22T03:07:46;1.23;;;1.23;;
57573;SDS011;68988;49.000;21.242;2023-12-22T03:10:12;1.20;;;1.10;;
57573;SDS011;68988;49.000;21.242;2023-12-22T03:12:37;1.40;;;1.30;;
57573;SDS011;68988;49.000;21.242;2023-12-22T03:15:03;1.38;;;1.27;;
57573;SDS011;68988;49.000;21.242;2023-12-22T03:17:29;1.40;;;1.30;;
57573;SDS011;68988;49.000;21.242;2023-12-22T03:19:54;1.10;;;1.10;;
57573;SDS011;68988;49.000;21.242;2023-12-22T03:22:20;0.90;;;0.90;;
57573;SDS011;68988;49.000;21.242;2023-12-22T03:24:46;1.42;;;1.25;;
57573;SDS011;68988;49.000;21.242;2023-12-22T03:27:11;1.13;;;1.13;;
57573;SDS011;68988;49.000;21.242;2023-12-22T03:29:41;0.68;;;0.68;;
57573;SDS011;68988;49.000;21.242;2023-12-22T03:32:07;0.98;;;0.98;;
57573;SDS011;68988;49.000;21.242;2023-12-22T03:34:32;1.33;;;1.25;;
57573;SDS011;68988;49.000;21.242;2023-12-22T03:36:58;1.88;;;1.25;;
57573;SDS011;68988;49.000;21.242;2023-12-22T03:39:24;1.30;;;1.20;;
57573;SDS011;68988;49.000;21.242;2023-12-22T03:41:49;1.10;;;1.10;;
57573;SDS011;68988;49.000;21.242;2023-12-22T03:44:14;1.20;;;1.15;;
57573;SDS011;68988;49.000;21.242;2023-12-22T03:46:40;1.35;;;1.27;;
57573;SDS011;68988;49.000;21.242;2023-12-22T03:49:05;1.08;;;1.08;;
57573;SDS011;68988;49.000;21.242;2023-12-22T03:51:30;1.42;;;0.93;;
57573;SDS011;68988;49.000;21.242;2023-12-22T03:53:56;1.05;;;1.05;;
57573;SDS011;68988;49.000;21.242;2023-12-22T03:56:21;1.25;;;1.25;;
57573;SDS011;68988;49.000;21.242;2023-12-22T03:58:46;1.17;;;1.17;;
57573;SDS011;68988;49.000;21.242;2023-12-22T04:01:13;1.15;;;1.15;;
57573;SDS011;68988;49.000;21.242;2023-12-22T04:03:39;1.30;;;1.30;;
57573;SDS011;68988;49.000;21.242;2023-12-22T04:06:05;0.98;;;0.98;;
57573;SDS011;68988;49.000;21.242;2023-12-22T04:08:30;1.30;;;1.30;;
57573;SDS011;68988;49.000;21.242;2023-12-22T04:10:56;1.13;;;1.13;;
57573;SDS011;68988;49.000;21.242;2023-12-22T04:13:21;1.15;;;1.15;;
57573;SDS011;68988;49.000;21.242;2023-12-22T04:15:46;1.10;;;1.10;;
57573;SDS011;68988;49.000;21.242;2023-12-22T04:18:12;1.40;;;1.30;;
57573;SDS011;68988;49.000;21.242;2023-12-22T04:20:37;1.02;;;1.02;;
57573;SDS011;68988;49.000;21.242;2023-12-22T04:23:02;1.50;;;1.40;;
57573;SDS011;68988;49.000;21.242;2023-12-22T04:25:28;1.08;;;1.08;;
57573;SDS011;68988;49.000;21.242;2023-12-22T04:27:53;1.25;;;1.15;;
57573;SDS011;68988;49.000;21.242;2023-12-22T04:30:19;0.93;;;0.88;;
57573;SDS011;68988;49.000;21.242;2023-12-22T04:32:44;1.05;;;1.05;;
57573;SDS011;68988;49.000;21.242;2023-12-22T04:35:10;1.10;;;1.10;;
57573;SDS011;68988;49.000;21.242;2023-12-22T04:37:35;1.30;;;1.20;;
57573;SDS011;68988;49.000;21.242;2023-12-22T04:40:01;1.27;;;1.27;;
57573;SDS011;68988;49.000;21.242;2023-12-22T04:42:26;1.30;;;1.20;;
57573;SDS011;68988;49.000;21.242;2023-12-22T04:44:52;1.50;;;1.38;;
57573;SDS011;68988;49.000;21.242;2023-12-22T04:47:17;1.20;;;1.20;;
57573;SDS011;68988;49.000;21.242;2023-12-22T04:49:43;1.40;;;1.30;;
57573;SDS011;68988;49.000;21.242;2023-12-22T04:52:09;0.90;;;0.90;;
57573;SDS011;68988;49.000;21.242;2023-12-22T04:54:35;0.95;;;0.95;;
57573;SDS011;68988;49.000;21.242;2023-12-22T04:57:01;1.00;;;1.00;;
57573;SDS011;68988;49.000;21.242;2023-12-22T04:59:26;1.10;;;1.10;;
57573;SDS011;68988;49.000;21.242;2023-12-22T05:01:51;1.33;;;1.25;;
57573;SDS011;68988;49.000;21.242;2023-12-22T05:04:17;1.38;;;1.27;;
57573;SDS011;68988;49.000;21.242;2023-12-22T05:06:43;0.80;;;0.80;;
57573;SDS011;68988;49.000;21.242;2023-12-22T05:09:10;1.10;;;1.10;;
57573;SDS011;68988;49.000;21.242;2023-12-22T05:11:35;1.25;;;0.88;;
57573;SDS011;68988;49.000;21.242;2023-12-22T05:14:01;1.00;;;1.00;;
57573;SDS011;68988;49.000;21.242;2023-12-22T05:16:26;1.00;;;1.00;;
57573;SDS011;68988;49.000;21.242;2023-12-22T05:18:52;1.23;;;1.20;;
57573;SDS011;68988;49.000;21.242;2023-12-22T05:21:18;1.00;;;1.00;;
57573;SDS011;68988;49.000;21.242;2023-12-22T05:23:43;1.20;;;1.20;;
57573;SDS011;68988;49.000;21.242;2023-12-22T05:26:08;0.88;;;0.88;;
57573;SDS011;68988;49.000;21.242;2023-12-22T05:28:34;1.30;;;1.20;;
57573;SDS011;68988;49.000;21.242;2023-12-22T05:30:59;0.98;;;0.98;;
57573;SDS011;68988;49.000;21.242;2023-12-22T05:33:24;0.90;;;0.90;;
57573;SDS011;68988;49.000;21.242;2023-12-22T05:35:50;1.02;;;1.02;;
57573;SDS011;68988;49.000;21.242;2023-12-22T05:38:15;1.15;;;1.15;;
57573;SDS011;68988;49.000;21.242;2023-12-22T05:40:40;1.05;;;1.05;;
57573;SDS011;68988;49.000;21.242;2023-12-22T05:43:06;1.33;;;1.27;;
57573;SDS011;68988;49.000;21.242;2023-12-22T05:45:31;1.10;;;1.10;;
57573;SDS011;68988;49.000;21.242;2023-12-22T05:47:57;1.15;;;1.10;;
57573;SDS011;68988;49.000;21.242;2023-12-22T05:50:22;1.02;;;1.02;;
57573;SDS011;68988;49.000;21.242;2023-12-22T05:52:48;2.47;;;1.00;;
57573;SDS011;68988;49.000;21.242;2023-12-22T05:55:14;1.30;;;1.20;;
57573;SDS011;68988;49.000;21.242;2023-12-22T05:57:39;1.10;;;1.10;;
57573;SDS011;68988;49.000;21.242;2023-12-22T06:00:04;1.17;;;1.15;;
57573;SDS011;68988;49.000;21.242;2023-12-22T06:02:32;1.00;;;1.00;;
57573;SDS011;68988;49.000;21.242;2023-12-22T06:04:58;0.80;;;0.80;;
57573;SDS011;68988;49.000;21.242;2023-12-22T06:07:23;0.85;;;0.85;;
57573;SDS011;68988;49.000;21.242;2023-12-22T06:09:49;1.10;;;1.10;;
57573;SDS011;68988;49.000;21.242;2023-12-22T06:12:14;1.08;;;0.98;;
57573;SDS011;68988;49.000;21.242;2023-12-22T06:14:39;1.33;;;0.90;;
57573;SDS011;68988;49.000;21.242;2023-12-22T06:17:05;0.90;;;0.90;;
57573;SDS011;68988;49.000;21.242;2023-12-22T06:19:30;1.00;;;1.00;;
57573;SDS011;68988;49.000;21.242;2023-12-22T06:21:56;0.90;;;0.90;;
57573;SDS011;68988;49.000;21.242;2023-12-22T06:24:22;0.98;;;0.98;;
57573;SDS011;68988;49.000;21.242;2023-12-22T06:26:48;0.95;;;0.95;;
57573;SDS011;68988;49.000;21.242;2023-12-22T06:29:13;0.90;;;0.90;;
57573;SDS011;68988;49.000;21.242;2023-12-22T06:31:39;0.93;;;0.93;;
57573;SDS011;68988;49.000;21.242;2023-12-22T06:34:04;0.90;;;0.90;;
57573;SDS011;68988;49.000;21.242;2023-12-22T06:36:30;1.02;;;1.02;;
57573;SDS011;68988;49.000;21.242;2023-12-22T06:38:55;1.20;;;1.20;;
57573;SDS011;68988;49.000;21.242;2023-12-22T06:41:24;1.10;;;1.10;;
57573;SDS011;68988;49.000;21.242;2023-12-22T06:43:51;1.23;;;1.13;;
57573;SDS011;68988;49.000;21.242;2023-12-22T06:46:20;1.00;;;1.00;;
57573;SDS011;68988;49.000;21.242;2023-12-22T06:48:47;1.08;;;1.08;;
57573;SDS011;68988;49.000;21.242;2023-12-22T06:51:19;1.00;;;1.00;;
57573;SDS011;68988;49.000;21.242;2023-12-22T06:53:48;1.00;;;1.00;;
57573;SDS011;68988;49.000;21.242;2023-12-22T06:56:14;0.63;;;0.63;;
57573;SDS011;68988;49.000;21.242;2023-12-22T06:58:43;0.88;;;0.88;;
57573;SDS011;68988;49.000;21.242;2023-12-22T07:01:11;0.98;;;0.98;;
57573;SDS011;68988;49.000;21.242;2023-12-22T07:03:37;1.08;;;1.08;;
57573;SDS011;68988;49.000;21.242;2023-12-22T07:06:03;3.13;;;1.08;;
57573;SDS011;68988;49.000;21.242;2023-12-22T07:08:29;1.10;;;1.00;;
57573;SDS011;68988;49.000;21.242;2023-12-22T07:10:54;1.20;;;1.13;;
57573;SDS011;68988;49.000;21.242;2023-12-22T07:13:19;3.47;;;0.95;;
57573;SDS011;68988;49.000;21.242;2023-12-22T07:15:45;1.60;;;0.88;;
57573;SDS011;68988;49.000;21.242;2023-12-22T07:18:10;0.80;;;0.80;;
57573;SDS011;68988;49.000;21.242;2023-12-22T07:20:35;1.10;;;1.00;;
57573;SDS011;68988;49.000;21.242;2023-12-22T07:23:01;0.98;;;0.90;;
57573;SDS011;68988;49.000;21.242;2023-12-22T07:25:26;0.95;;;0.90;;
57573;SDS011;68988;49.000;21.242;2023-12-22T07:27:51;2.75;;;1.20;;
57573;SDS011;68988;49.000;21.242;2023-12-22T07:30:17;0.80;;;0.80;;
57573;SDS011;68988;49.000;21.242;2023-12-22T07:32:43;0.95;;;0.93;;
57573;SDS011;68988;49.000;21.242;2023-12-22T07:35:09;3.05;;;1.10;;
57573;SDS011;68988;49.000;21.242;2023-12-22T07:37:37;0.90;;;0.90;;
57573;SDS011;68988;49.000;21.242;2023-12-22T07:40:03;1.10;;;1.00;;
57573;SDS011;68988;49.000;21.242;2023-12-22T07:42:28;0.82;;;0.82;;
57573;SDS011;68988;49.000;21.242;2023-12-22T07:44:54;1.02;;;0.98;;
57573;SDS011;68988;49.000;21.242;2023-12-22T07:47:19;1.00;;;1.00;;
57573;SDS011;68988;49.000;21.242;2023-12-22T07:49:45;2.97;;;0.82;;
57573;SDS011;68988;49.000;21.242;2023-12-22T07:52:10;0.80;;;0.80;;
57573;SDS011;68988;49.000;21.242;2023-12-22T07:54:36;0.90;;;0.90;;
57573;SDS011;68988;49.000;21.242;2023-12-22T07:57:01;0.80;;;0.80;;
57573;SDS011;68988;49.000;21.242;2023-12-22T07:59:26;1.20;;;1.10;;
57573;SDS011;68988;49.000;21.242;2023-12-22T08:01:51;0.80;;;0.80;;
57573;SDS011;68988;49.000;21.242;2023-12-22T08:04:17;4.75;;;0.90;;
57573;SDS011;68988;49.000;21.242;2023-12-22T08:06:42;0.82;;;0.82;;
57573;SDS011;68988;49.000;21.242;2023-12-22T08:09:08;1.10;;;1.10;;
57573;SDS011;68988;49.000;21.242;2023-12-22T08:11:33;0.95;;;0.95;;
57573;SDS011;68988;49.000;21.242;2023-12-22T08:13:58;0.80;;;0.80;;
57573;SDS011;68988;49.000;21.242;2023-12-22T08:16:24;0.75;;;0.75;;
57573;SDS011;68988;49.000;21.242;2023-12-22T08:18:49;0.70;;;0.70;;
57573;SDS011;68988;49.000;21.242;2023-12-22T08:21:15;0.85;;;0.80;;
57573;SDS011;68988;49.000;21.242;2023-12-22T08:23:41;0.90;;;0.90;;
57573;SDS011;68988;49.000;21.242;2023-12-22T08:26:07;2.72;;;0.82;;
57573;SDS011;68988;49.000;21.242;2023-12-22T08:28:32;0.65;;;0.65;;
57573;SDS011;68988;49.000;21.242;2023-12-22T08:30:57;0.82;;;0.82;;
57573;SDS011;68988;49.000;21.242;2023-12-22T08:33:23;3.80;;;1.00;;
57573;SDS011;68988;49.000;21.242;2023-12-22T08:35:48;2.58;;;0.85;;
57573;SDS011;68988;49.000;21.242;2023-12-22T08:38:13;1.77;;;0.85;;
57573;SDS011;68988;49.000;21.242;2023-12-22T08:40:40;0.70;;;0.70;;
57573;SDS011;68988;49.000;21.242;2023-12-22T08:43:05;0.93;;;0.93;;
57573;SDS011;68988;49.000;21.242;2023-12-22T08:45:31;1.00;;;0.80;;
57573;SDS011;68988;49.000;21.242;2023-12-22T08:47:57;4.53;;;1.17;;
57573;SDS011;68988;49.000;21.242;2023-12-22T08:50:22;3.50;;;0.80;;
57573;SDS011;68988;49.000;21.242;2023-12-22T08:52:48;0.95;;;0.82;;
57573;SDS011;68988;49.000;21.242;2023-12-22T08:55:13;0.73;;;0.73;;
57573;SDS011;68988;49.000;21.242;2023-12-22T08:57:39;0.90;;;0.90;;
57573;SDS011;68988;49.000;21.242;2023-12-22T09:00:05;1.15;;;0.80;;
57573;SDS011;68988;49.000;21.242;2023-12-22T09:02:31;1.17;;;0.68;;
57573;SDS011;68988;49.000;21.242;2023-12-22T09:04:56;0.68;;;0.68;;
57573;SDS011;68988;49.000;21.242;2023-12-22T09:07:21;0.85;;;0.85;;
57573;SDS011;68988;49.000;21.242;2023-12-22T09:09:47;0.73;;;0.73;;
57573;SDS011;68988;49.000;21.242;2023-12-22T09:12:13;0.68;;;0.68;;
57573;SDS011;68988;49.000;21.242;2023-12-22T09:14:38;1.45;;;0.82;;
57573;SDS011;68988;49.000;21.242;2023-12-22T09:17:03;1.15;;;0.95;;
57573;SDS011;68988;49.000;21.242;2023-12-22T09:19:28;0.93;;;0.88;;
57573;SDS011;68988;49.000;21.242;2023-12-22T09:21:58;0.80;;;0.80;;
57573;SDS011;68988;49.000;21.242;2023-12-22T09:24:23;0.95;;;0.90;;
57573;SDS011;68988;49.000;21.242;2023-12-22T09:26:49;1.23;;;0.90;;
57573;SDS011;68988;49.000;21.242;2023-12-22T09:29:15;2.55;;;1.10;;
57573;SDS011;68988;49.000;21.242;2023-12-22T09:31:41;10.38;;;0.88;;
57573;SDS011;68988;49.000;21.242;2023-12-22T09:34:07;1.42;;;0.98;;
57573;SDS011;68988;49.000;21.242;2023-12-22T09:36:32;0.98;;;0.95;;
57573;SDS011;68988;49.000;21.242;2023-12-22T09:38:57;0.98;;;0.98;;
57573;SDS011;68988;49.000;21.242;2023-12-22T09:41:23;3.30;;;0.93;;
57573;SDS011;68988;49.000;21.242;2023-12-22T09:43:49;0.93;;;0.93;;
57573;SDS011;68988;49.000;21.242;2023-12-22T09:46:15;0.80;;;0.80;;
57573;SDS011;68988;49.000;21.242;2023-12-22T09:48:43;1.00;;;0.90;;
57573;SDS011;68988;49.000;21.242;2023-12-22T09:51:10;3.85;;;1.08;;
57573;SDS011;68988;49.000;21.242;2023-12-22T09:53:37;2.65;;;0.88;;
57573;SDS011;68988;49.000;21.242;2023-12-22T09:56:04;0.80;;;0.80;;
57573;SDS011;68988;49.000;21.242;2023-12-22T09:58:33;4.97;;;0.93;;
57573;SDS011;68988;49.000;21.242;2023-12-22T10:01:04;3.63;;;1.20;;
57573;SDS011;68988;49.000;21.242;2023-12-22T10:03:32;4.47;;;0.77;;
57573;SDS011;68988;49.000;21.242;2023-12-22T10:05:58;0.55;;;0.55;;
57573;SDS011;68988;49.000;21.242;2023-12-22T10:08:33;3.92;;;0.95;;
57573;SDS011;68988;49.000;21.242;2023-12-22T10:10:59;2.28;;;0.85;;
57573;SDS011;68988;49.000;21.242;2023-12-22T10:13:29;1.00;;;0.88;;
57573;SDS011;68988;49.000;21.242;2023-12-22T10:15:58;0.80;;;0.80;;
57573;SDS011;68988;49.000;21.242;2023-12-22T10:18:31;1.50;;;0.70;;
57573;SDS011;68988;49.000;21.242;2023-12-22T10:20:57;1.15;;;0.80;;
57573;SDS011;68988;49.000;21.242;2023-12-22T10:23:24;2.05;;;1.08;;
57573;SDS011;68988;49.000;21.242;2023-12-22T10:25:55;6.68;;;1.20;;
57573;SDS011;68988;49.000;21.242;2023-12-22T10:28:24;5.47;;;1.15;;
57573;SDS011;68988;49.000;21.242;2023-12-22T10:30:55;2.63;;;0.93;;
57573;SDS011;68988;49.000;21.242;2023-12-22T10:33:29;1.52;;;1.02;;
57573;SDS011;68988;49.000;21.242;2023-12-22T10:35:55;0.70;;;0.70;;
57573;SDS011;68988;49.000;21.242;2023-12-22T10:38:20;1.75;;;0.80;;
57573;SDS011;68988;49.000;21.242;2023-12-22T10:40:50;2.08;;;0.75;;
57573;SDS011;68988;49.000;21.242;2023-12-22T10:43:17;1.75;;;1.00;;
57573;SDS011;68988;49.000;21.242;2023-12-22T10:45:43;0.93;;;0.90;;
57573;SDS011;68988;49.000;21.242;2023-12-22T10:48:10;0.70;;;0.70;;
57573;SDS011;68988;49.000;21.242;2023-12-22T10:50:35;1.05;;;0.95;;
57573;SDS011;68988;49.000;21.242;2023-12-22T10:53:01;1.42;;;1.00;;
57573;SDS011;68988;49.000;21.242;2023-12-22T10:55:26;0.85;;;0.77;;
57573;SDS011;68988;49.000;21.242;2023-12-22T10:57:52;1.70;;;0.73;;
57573;SDS011;68988;49.000;21.242;2023-12-22T11:00:19;0.70;;;0.70;;
57573;SDS011;68988;49.000;21.242;2023-12-22T11:02:49;1.02;;;0.70;;
57573;SDS011;68988;49.000;21.242;2023-12-22T11:05:18;0.88;;;0.88;;
57573;SDS011;68988;49.000;21.242;2023-12-22T11:07:49;3.92;;;1.00;;
57573;SDS011;68988;49.000;21.242;2023-12-22T11:10:20;1.80;;;0.80;;
57573;SDS011;68988;49.000;21.242;2023-12-22T11:12:46;1.58;;;1.05;;
57573;SDS011;68988;49.000;21.242;2023-12-22T11:15:12;1.15;;;1.02;;
57573;SDS011;68988;49.000;21.242;2023-12-22T11:17:40;1.13;;;0.82;;
57573;SDS011;68988;49.000;21.242;2023-12-22T11:20:12;0.88;;;0.77;;
57573;SDS011;68988;49.000;21.242;2023-12-22T11:22:38;1.52;;;1.00;;
57573;SDS011;68988;49.000;21.242;2023-12-22T11:25:05;1.70;;;1.00;;
57573;SDS011;68988;49.000;21.242;2023-12-22T11:27:33;3.50;;;1.00;;
57573;SDS011;68988;49.000;21.242;2023-12-22T11:29:59;0.95;;;0.77;;
57573;SDS011;68988;49.000;21.242;2023-12-22T11:32:26;1.08;;;0.88;;
57573;SDS011;68988;49.000;21.242;2023-12-22T11:34:54;2.33;;;0.82;;
57573;SDS011;68988;49.000;21.242;2023-12-22T11:37:21;1.88;;;0.88;;
57573;SDS011;68988;49.000;21.242;2023-12-22T11:39:47;1.70;;;0.80;;
57573;SDS011;68988;49.000;21.242;2023-12-22T11:42:17;1.52;;;0.80;;
57573;SDS011;68988;49.000;21.242;2023-12-22T11:47:11;1.75;;;1.02;;
57573;SDS011;68988;49.000;21.242;2023-12-22T11:49:39;4.97;;;0.90;;
57573;SDS011;68988;49.000;21.242;2023-12-22T11:54:47;7.20;;;1.10;;
57573;SDS011;68988;49.000;21.242;2023-12-22T11:59:52;1.67;;;0.85;;
57573;SDS011;68988;49.000;21.242;2023-12-22T12:02:19;0.80;;;0.70;;
57573;SDS011;68988;49.000;21.242;2023-12-22T12:04:49;0.90;;;0.90;;
57573;SDS011;68988;49.000;21.242;2023-12-22T12:10:14;3.95;;;0.80;;
57573;SDS011;68988;49.000;21.242;2023-12-22T12:15:30;0.98;;;0.82;;
57573;SDS011;68988;49.000;21.242;2023-12-22T12:17:58;0.90;;;0.77;;
57573;SDS011;68988;49.000;21.242;2023-12-22T12:20:25;1.58;;;0.80;;
57573;SDS011;68988;49.000;21.242;2023-12-22T12:22:52;1.00;;;0.73;;
57573;SDS011;68988;49.000;21.242;2023-12-22T12:25:18;0.98;;;0.60;;
57573;SDS011;68988;49.000;21.242;2023-12-22T12:27:49;0.60;;;0.60;;
57573;SDS011;68988;49.000;21.242;2023-12-22T12:30:25;1.50;;;1.08;;
57573;SDS011;68988;49.000;21.242;2023-12-22T12:32:51;4.30;;;0.90;;
57573;SDS011;68988;49.000;21.242;2023-12-22T12:35:16;1.05;;;0.95;;
57573;SDS011;68988;49.000;21.242;2023-12-22T12:37:43;1.00;;;0.80;;
57573;SDS011;68988;49.000;21.242;2023-12-22T12:40:10;0.70;;;0.70;;
57573;SDS011;68988;49.000;21.242;2023-12-22T12:42:36;1.88;;;1.02;;
57573;SDS011;68988;49.000;21.242;2023-12-22T12:45:06;1.95;;;0.85;;
57573;SDS011;68988;49.000;21.242;2023-12-22T12:47:32;1.27;;;0.90;;
57573;SDS011;68988;49.000;21.242;2023-12-22T12:49:58;2.85;;;0.90;;
57573;SDS011;68988;49.000;21.242;2023-12-22T12:52:24;1.42;;;1.08;;
57573;SDS011;68988;49.000;21.242;2023-12-22T12:54:50;0.82;;;0.70;;
57573;SDS011;68988;49.000;21.242;2023-12-22T12:57:16;1.13;;;0.90;;
57573;SDS011;68988;49.000;21.242;2023-12-22T12:59:46;0.88;;;0.70;;
57573;SDS011;68988;49.000;21.242;2023-12-22T13:02:12;4.47;;;0.80;;
57573;SDS011;68988;49.000;21.242;2023-12-22T13:04:38;1.25;;;1.00;;
57573;SDS011;68988;49.000;21.242;2023-12-22T13:07:04;1.50;;;0.90;;
57573;SDS011;68988;49.000;21.242;2023-12-22T13:09:33;0.75;;;0.75;;
57573;SDS011;68988;49.000;21.242;2023-12-22T13:11:59;0.98;;;0.90;;
57573;SDS011;68988;49.000;21.242;2023-12-22T13:14:24;1.23;;;0.63;;
57573;SDS011;68988;49.000;21.242;2023-12-22T13:16:50;1.05;;;0.95;;
57573;SDS011;68988;49.000;21.242;2023-12-22T13:19:16;0.80;;;0.80;;
57573;SDS011;68988;49.000;21.242;2023-12-22T13:21:42;1.10;;;1.00;;
57573;SDS011;68988;49.000;21.242;2023-12-22T13:24:07;1.25;;;0.82;;
57573;SDS011;68988;49.000;21.242;2023-12-22T13:26:34;1.02;;;0.90;;
57573;SDS011;68988;49.000;21.242;2023-12-22T13:29:00;0.80;;;0.80;;
57573;SDS011;68988;49.000;21.242;2023-12-22T13:31:25;1.83;;;1.05;;
57573;SDS011;68988;49.000;21.242;2023-12-22T13:33:51;0.68;;;0.68;;
57573;SDS011;68988;49.000;21.242;2023-12-22T13:36:17;0.90;;;0.70;;
57573;SDS011;68988;49.000;21.242;2023-12-22T13:38:46;1.20;;;1.10;;
57573;SDS011;68988;49.000;21.242;2023-12-22T13:41:13;1.13;;;0.90;;
57573;SDS011;68988;49.000;21.242;2023-12-22T13:43:39;0.82;;;0.80;;
57573;SDS011;68988;49.000;21.242;2023-12-22T13:46:05;0.95;;;0.85;;
57573;SDS011;68988;49.000;21.242;2023-12-22T13:48:32;1.00;;;0.70;;
57573;SDS011;68988;49.000;21.242;2023-12-22T13:50:59;1.88;;;0.88;;
57573;SDS011;68988;49.000;21.242;2023-12-22T13:53:25;2.75;;;0.80;;
57573;SDS011;68988;49.000;21.242;2023-12-22T13:55:57;2.40;;;0.70;;
57573;SDS011;68988;49.000;21.242;2023-12-22T13:58:24;2.13;;;0.95;;
57573;SDS011;68988;49.000;21.242;2023-12-22T14:00:50;0.73;;;0.73;;
57573;SDS011;68988;49.000;21.242;2023-12-22T14:03:17;0.95;;;0.80;;
57573;SDS011;68988;49.000;21.242;2023-12-22T14:05:46;1.33;;;0.93;;
57573;SDS011;68988;49.000;21.242;2023-12-22T14:08:18;1.63;;;0.90;;
57573;SDS011;68988;49.000;21.242;2023-12-22T14:10:47;1.13;;;0.95;;
57573;SDS011;68988;49.000;21.242;2023-12-22T14:13:13;1.77;;;1.10;;
57573;SDS011;68988;49.000;21.242;2023-12-22T14:15:41;0.98;;;0.80;;
57573;SDS011;68988;49.000;21.242;2023-12-22T14:18:11;1.15;;;1.00;;
57573;SDS011;68988;49.000;21.242;2023-12-22T14:20:37;1.20;;;0.90;;
57573;SDS011;68988;49.000;21.242;2023-12-22T14:23:04;1.27;;;0.75;;
57573;SDS011;68988;49.000;21.242;2023-12-22T14:25:29;2.25;;;0.80;;
57573;SDS011;68988;49.000;21.242;2023-12-22T14:27:56;1.00;;;0.90;;
57573;SDS011;68988;49.000;21.242;2023-12-22T14:30:23;0.90;;;0.88;;
57573;SDS011;68988;49.000;21.242;2023-12-22T14:32:52;1.38;;;0.82;;
57573;SDS011;68988;49.000;21.242;2023-12-22T14:35:28;0.88;;;0.80;;
57573;SDS011;68988;49.000;21.242;2023-12-22T14:37:54;0.95;;;0.85;;
57573;SDS011;68988;49.000;21.242;2023-12-22T14:40:21;1.52;;;1.10;;